Woodlawn, Virginia
Current Conditions -  °F | °C
As of 9:15 AM on Thursday 23 Oct 2014 (Local Time) from KHLX Reporting Station
Broken Clouds Broken Clouds  
Wind Chill: 34°   Ceiling: 1700
Heat Index: 43°   Visibility: 10mi
Dew Point: 37°   Wind: 21mph
Humidity: 78%   Direction: 340°NNW
Pressure: 30.11"   Gusts: 30mph
Location:  36.72°N, 80.82°W
Report Text: KHLX 231315Z AUTO 34018G26KT 10SM BKN017 06/03 A3011 RMK AO2 T00620026
Loading
Personal Weather Stations






























Interactive Weather Map
Tropical Storm Tracking
New forecast layout! Learn more

10-Day Weather Forecast

Advertisements
Track Severe Weather on mobile